Time;durP1;ratioP1;P1;durP2;ratioP2;P2;SDS_P1;SDS_P2;PMS_P1;PMS_P2;Temp;Humidity;BMP_temperature;BMP_pressure;BME280_temperature;BME280_humidity;BME280_pressure;Samples;Min_cycle;Max_cycle;Signal;HPM_P1;HPM_P2
2023/01/05 00:02:44;;;;;;;7.38;3.72;;;;;;;;;;6254769;28;20096;-73
2023/01/05 00:05:44;;;;;;;7.75;4.00;;;;;;;;;;6271804;28;20020;-73
2023/01/05 00:08:44;;;;;;;5.03;3.40;;;;;;;;;;6241993;28;20096;-73
2023/01/05 00:25:02;;;;;;;9.73;4.80;;;;;;;;;;6276921;28;20025;-73
2023/01/05 00:28:03;;;;;;;7.25;3.80;;;;;;;;;;6255043;28;20408;-73
2023/01/05 00:31:03;;;;;;;7.83;3.57;;;;;;;;;;6272890;28;20079;-73
2023/01/05 00:34:03;;;;;;;7.97;4.13;;;;;;;;;;6248993;28;20031;-72
2023/01/05 00:37:03;;;;;;;9.63;3.93;;;;;;;;;;6272482;28;20509;-73
2023/01/05 00:40:05;;;;;;;5.72;3.42;;;;;;;;;;6265546;28;20043;-73
2023/01/05 00:43:05;;;;;;;5.22;3.08;;;;;;;;;;6262815;28;20010;-73
2023/01/05 00:46:05;;;;;;;9.73;4.17;;;;;;;;;;6250124;28;20439;-72
2023/01/05 00:49:05;;;;;;;8.07;4.97;;;;;;;;;;6271244;28;20013;-73
2023/01/05 00:52:06;;;;;;;6.73;3.73;;;;;;;;;;6269425;28;20048;-73
2023/01/05 00:55:06;;;;;;;9.07;3.80;;;;;;;;;;6270329;28;20017;-73
2023/01/05 00:58:06;;;;;;;7.00;3.00;;;;;;;;;;6266274;28;20100;-73
2023/01/05 01:01:10;;;;;;;8.23;4.30;;;;;;;;;;6249777;28;20017;-73
2023/01/05 01:04:10;;;;;;;4.90;3.17;;;;;;;;;;6268736;28;20026;-73
2023/01/05 01:07:10;;;;;;;3.35;2.92;;;;;;;;;;6245800;28;20092;-73
2023/01/05 01:10:10;;;;;;;5.47;3.47;;;;;;;;;;6270831;28;20040;-73
2023/01/05 01:13:11;;;;;;;4.87;3.30;;;;;;;;;;6268315;28;20021;-73
2023/01/05 01:16:13;;;;;;;7.10;3.35;;;;;;;;;;6248433;28;20155;-74
2023/01/05 01:19:14;;;;;;;8.45;2.90;;;;;;;;;;6241678;28;20037;-73
2023/01/05 01:22:14;;;;;;;8.25;3.20;;;;;;;;;;6246374;28;20056;-73
2023/01/05 01:25:15;;;;;;;3.77;2.30;;;;;;;;;;6239670;28;20025;-73
2023/01/05 01:28:15;;;;;;;6.53;3.00;;;;;;;;;;6246231;28;20095;-73
2023/01/05 01:31:15;;;;;;;6.20;3.67;;;;;;;;;;6246032;28;20036;-73
2023/01/05 01:34:16;;;;;;;4.57;3.37;;;;;;;;;;6246406;28;20121;-74
2023/01/05 01:37:16;;;;;;;5.23;3.60;;;;;;;;;;6245666;28;20440;-73
2023/01/05 01:40:16;;;;;;;6.67;3.70;;;;;;;;;;6245507;28;20021;-74
2023/01/05 01:43:18;;;;;;;7.40;4.20;;;;;;;;;;6245448;28;20057;-73
2023/01/05 01:46:18;;;;;;;;;;;;;;;;;;6238077;28;20021;-73
2023/01/05 01:49:18;;;;;;;9.07;4.13;;;;;;;;;;6244776;28;19999;-73
2023/01/05 01:52:19;;;;;;;7.03;4.03;;;;;;;;;;6240198;28;20017;-73
2023/01/05 01:55:19;;;;;;;6.67;3.83;;;;;;;;;;6246649;28;20017;-73
2023/01/05 01:58:22;;;;;;;5.73;3.07;;;;;;;;;;6245706;28;20351;-73
2023/01/05 02:01:23;;;;;;;8.48;3.80;;;;;;;;;;6246869;28;20029;-73
2023/01/05 02:04:24;;;;;;;7.10;3.90;;;;;;;;;;6242785;28;20033;-73
2023/01/05 02:07:24;;;;;;;8.77;5.13;;;;;;;;;;6244584;28;20486;-73
2023/01/05 02:10:48;;;;;;;5.37;3.20;;;;;;;;;;6244931;28;20025;-73
2023/01/05 02:14:07;;;;;;;5.65;3.05;;;;;;;;;;6239841;28;20037;-73
2023/01/05 02:17:27;;;;;;;5.80;3.22;;;;;;;;;;6246462;28;20034;-73
2023/01/05 02:20:28;;;;;;;6.75;3.08;;;;;;;;;;6224395;28;20051;-72
2023/01/05 02:23:43;;;;;;;4.43;2.28;;;;;;;;;;6246433;28;20025;-73
2023/01/05 02:26:55;;;;;;;5.10;3.00;;;;;;;;;;6244016;28;20048;-72
2023/01/05 02:29:55;;;;;;;;;;;;;;;;;;6245401;28;20504;-73
2023/01/05 02:32:58;;;;;;;2.63;2.28;;;;;;;;;;6245023;28;20351;-73
2023/01/05 02:36:05;;;;;;;5.68;3.03;;;;;;;;;;6243735;28;20022;-73
2023/01/05 02:39:31;;;;;;;6.68;2.97;;;;;;;;;;6243846;28;20025;-73
2023/01/05 02:42:33;;;;;;;3.05;1.92;;;;;;;;;;6237282;28;20056;-73
2023/01/05 02:45:33;;;;;;;2.25;1.88;;;;;;;;;;6245241;28;20594;-74
2023/01/05 02:48:33;;;;;;;2.77;1.63;;;;;;;;;;6244138;28;20093;-73
2023/01/05 02:51:43;;;;;;;2.80;2.13;;;;;;;;;;6243263;28;20380;-72
2023/01/05 02:54:47;;;;;;;3.45;1.80;;;;;;;;;;6245983;28;20053;-73
2023/01/05 02:57:55;;;;;;;2.83;1.33;;;;;;;;;;6248724;28;20018;-74
2023/01/05 03:00:59;;;;;;;3.15;2.38;;;;;;;;;;6245347;28;20021;-73
2023/01/05 03:04:00;;;;;;;4.22;2.25;;;;;;;;;;6249138;28;20021;-73
2023/01/05 03:07:05;;;;;;;3.42;2.10;;;;;;;;;;6240985;28;20037;-73
2023/01/05 03:13:41;;;;;;;7.80;2.80;;;;;;;;;;6248050;28;20021;-73
2023/01/05 03:16:43;;;;;;;2.67;2.33;;;;;;;;;;6248862;28;20101;-72
2023/01/05 03:19:44;;;;;;;5.82;3.28;;;;;;;;;;6247168;28;20091;-73
2023/01/05 03:36:10;;;;;;;7.40;4.13;;;;;;;;;;6242943;28;20045;-73
2023/01/05 03:39:12;;;;;;;4.10;2.08;;;;;;;;;;6248356;28;20470;-72
2023/01/05 03:42:12;;;;;;;;;;;;;;;;;;6252726;28;20389;-72
2023/01/05 03:45:14;;;;;;;6.15;3.10;;;;;;;;;;6242127;28;20273;-72
2023/01/05 03:48:14;;;;;;;5.78;3.05;;;;;;;;;;6246716;28;20022;-72
2023/01/05 03:51:15;;;;;;;5.30;3.47;;;;;;;;;;6245680;28;20435;-72
2023/01/05 03:54:15;;;;;;;6.93;2.87;;;;;;;;;;6247819;28;20017;-72
2023/01/05 03:57:15;;;;;;;4.22;2.88;;;;;;;;;;6246530;28;20034;-73
2023/01/05 04:00:15;;;;;;;6.47;2.40;;;;;;;;;;6247735;28;20057;-72
2023/01/05 04:03:16;;;;;;;8.27;3.23;;;;;;;;;;6247511;28;20013;-72
2023/01/05 04:06:16;;;;;;;5.13;2.83;;;;;;;;;;6245144;28;20020;-72
2023/01/05 04:09:16;;;;;;;6.03;2.50;;;;;;;;;;6245800;28;20017;-73
2023/01/05 04:12:16;;;;;;;4.68;2.42;;;;;;;;;;6241001;28;20059;-72
2023/01/05 04:15:17;;;;;;;6.22;2.92;;;;;;;;;;6245742;28;20076;-72
2023/01/05 04:18:17;;;;;;;7.03;2.93;;;;;;;;;;6246458;28;20057;-72
2023/01/05 04:21:17;;;;;;;6.13;3.07;;;;;;;;;;6270961;28;20021;-72
2023/01/05 04:24:17;;;;;;;6.03;2.95;;;;;;;;;;6250158;28;20272;-73
2023/01/05 04:27:17;;;;;;;6.40;2.90;;;;;;;;;;6271255;28;20477;-73
2023/01/05 04:30:18;;;;;;;5.30;2.80;;;;;;;;;;6273554;28;20059;-73
2023/01/05 04:33:19;;;;;;;5.50;3.07;;;;;;;;;;6251434;28;20435;-73
2023/01/05 04:36:19;;;;;;;6.07;2.67;;;;;;;;;;6272578;28;20025;-73
2023/01/05 04:39:19;;;;;;;6.53;3.33;;;;;;;;;;6272016;28;20021;-74
2023/01/05 04:42:19;;;;;;;5.13;3.08;;;;;;;;;;6252560;28;20540;-73
2023/01/05 04:45:19;;;;;;;5.40;2.60;;;;;;;;;;6244530;28;20021;-73
2023/01/05 04:48:20;;;;;;;7.80;4.17;;;;;;;;;;6270452;28;20473;-73
2023/01/05 04:51:20;;;;;;;6.90;4.30;;;;;;;;;;6270572;28;20507;-73
2023/01/05 04:54:20;;;;;;;4.45;3.35;;;;;;;;;;6272300;28;20021;-73
2023/01/05 04:57:20;;;;;;;10.93;4.83;;;;;;;;;;6270537;28;20075;-72
2023/01/05 05:00:20;;;;;;;6.73;3.67;;;;;;;;;;6269731;28;20464;-73
2023/01/05 05:03:21;;;;;;;13.40;6.47;;;;;;;;;;6269944;28;20084;-73
2023/01/05 05:06:21;;;;;;;8.47;4.37;;;;;;;;;;6269676;28;20009;-74
2023/01/05 05:09:21;;;;;;;17.87;6.00;;;;;;;;;;6270731;28;20016;-73
2023/01/05 05:12:21;;;;;;;12.83;5.47;;;;;;;;;;6269299;28;20019;-73
2023/01/05 05:15:21;;;;;;;13.67;7.73;;;;;;;;;;6267196;28;20020;-74
2023/01/05 05:18:22;;;;;;;11.20;5.32;;;;;;;;;;6249727;28;20029;-73
2023/01/05 05:21:22;;;;;;;13.40;6.73;;;;;;;;;;6268648;28;20013;-73
2023/01/05 05:24:22;;;;;;;14.38;6.75;;;;;;;;;;6268269;28;20069;-73
2023/01/05 05:27:22;;;;;;;18.90;7.37;;;;;;;;;;6269269;28;20016;-73
2023/01/05 05:30:22;;;;;;;22.50;11.27;;;;;;;;;;6267991;28;20028;-73
2023/01/05 05:33:23;;;;;;;18.17;9.38;;;;;;;;;;6268696;28;20021;-74
2023/01/05 05:36:23;;;;;;;15.83;6.83;;;;;;;;;;6268065;28;20028;-73
2023/01/05 05:39:23;;;;;;;18.92;8.68;;;;;;;;;;6267970;28;20388;-74
2023/01/05 05:42:23;;;;;;;17.50;8.73;;;;;;;;;;6250259;28;20545;-74
2023/01/05 05:45:24;;;;;;;25.63;11.50;;;;;;;;;;6268780;28;20074;-74
2023/01/05 05:48:24;;;;;;;23.43;9.73;;;;;;;;;;6267458;28;20100;-73
2023/01/05 05:51:24;;;;;;;14.27;6.03;;;;;;;;;;6265071;28;20024;-73
2023/01/05 05:54:24;;;;;;;13.77;6.50;;;;;;;;;;6269966;28;20024;-74
2023/01/05 05:57:24;;;;;;;8.63;4.85;;;;;;;;;;6268942;28;20453;-74
2023/01/05 06:00:25;;;;;;;17.55;7.10;;;;;;;;;;6267712;28;20078;-74
2023/01/05 06:03:25;;;;;;;8.25;5.00;;;;;;;;;;6266946;28;20040;-73
2023/01/05 06:06:25;;;;;;;20.00;10.23;;;;;;;;;;6265393;28;20021;-74
2023/01/05 06:09:25;;;;;;;10.65;6.38;;;;;;;;;;6268668;28;20009;-74
2023/01/05 06:12:25;;;;;;;7.13;4.63;;;;;;;;;;6270252;28;20036;-74
2023/01/05 06:15:26;;;;;;;10.27;6.30;;;;;;;;;;6264188;28;20013;-73
2023/01/05 06:18:27;;;;;;;9.07;5.70;;;;;;;;;;6244985;28;20049;-73
2023/01/05 06:21:27;;;;;;;5.95;3.83;;;;;;;;;;6242636;28;20079;-73
2023/01/05 06:24:27;;;;;;;7.00;3.63;;;;;;;;;;6240888;28;20013;-73
2023/01/05 06:27:27;;;;;;;8.43;4.40;;;;;;;;;;6246748;28;20017;-74
2023/01/05 06:30:28;;;;;;;7.57;3.93;;;;;;;;;;6245762;28;20032;-73
2023/01/05 06:33:28;;;;;;;7.63;4.20;;;;;;;;;;6242742;28;20033;-73
2023/01/05 06:36:28;;;;;;;13.00;5.63;;;;;;;;;;6245617;28;20025;-73
2023/01/05 06:39:28;;;;;;;11.97;5.20;;;;;;;;;;6248446;28;20025;-74
2023/01/05 06:42:28;;;;;;;11.43;3.63;;;;;;;;;;6249395;28;20055;-74
2023/01/05 06:45:28;;;;;;;9.80;5.07;;;;;;;;;;6249682;28;20018;-73
2023/01/05 06:48:29;;;;;;;40.42;18.75;;;;;;;;;;6243884;28;20156;-74
2023/01/05 06:51:29;;;;;;;18.07;8.30;;;;;;;;;;6248691;28;20417;-74
2023/01/05 06:54:29;;;;;;;15.02;8.40;;;;;;;;;;6246948;28;20063;-74
2023/01/05 06:57:29;;;;;;;13.57;6.38;;;;;;;;;;6244702;28;20393;-75
2023/01/05 07:00:30;;;;;;;19.07;7.77;;;;;;;;;;6246241;28;20021;-75
2023/01/05 07:03:30;;;;;;;10.90;5.30;;;;;;;;;;6246404;28;20024;-75
2023/01/05 07:06:30;;;;;;;12.63;6.43;;;;;;;;;;6246013;28;20037;-74
2023/01/05 07:09:31;;;;;;;15.93;5.83;;;;;;;;;;6245728;28;20021;-74
2023/01/05 07:12:31;;;;;;;13.37;5.87;;;;;;;;;;6245820;28;20029;-75
2023/01/05 07:15:31;;;;;;;13.73;5.00;;;;;;;;;;6247088;28;20013;-74
2023/01/05 07:18:31;;;;;;;6.88;2.75;;;;;;;;;;6255490;28;20044;-75
2023/01/05 07:21:31;;;;;;;8.02;3.78;;;;;;;;;;6253373;28;20056;-75
2023/01/05 07:24:32;;;;;;;5.40;2.47;;;;;;;;;;6271748;28;20082;-74
2023/01/05 07:27:32;;;;;;;17.93;5.23;;;;;;;;;;6272363;28;20499;-75
2023/01/05 07:30:32;;;;;;;4.03;1.80;;;;;;;;;;6267414;28;20048;-75
2023/01/05 07:33:32;;;;;;;7.25;3.65;;;;;;;;;;6271030;28;20066;-75
2023/01/05 07:36:32;;;;;;;12.90;4.33;;;;;;;;;;6247981;28;20492;-75
2023/01/05 07:39:33;;;;;;;7.50;4.10;;;;;;;;;;6271339;28;20024;-75
2023/01/05 07:42:33;;;;;;;15.00;6.03;;;;;;;;;;6271292;28;20104;-75
2023/01/05 07:45:33;;;;;;;9.23;3.28;;;;;;;;;;6271870;28;20021;-76
2023/01/05 07:48:33;;;;;;;8.68;3.70;;;;;;;;;;6266416;28;20032;-75
2023/01/05 07:51:34;;;;;;;14.68;7.57;;;;;;;;;;6271194;28;20025;-75
2023/01/05 07:54:34;;;;;;;14.27;4.90;;;;;;;;;;6270889;28;20075;-75
2023/01/05 07:57:34;;;;;;;9.47;4.57;;;;;;;;;;6269542;28;20058;-75
2023/01/05 08:00:35;;;;;;;5.73;2.00;;;;;;;;;;6267400;28;20021;-76
2023/01/05 08:03:35;;;;;;;6.10;2.13;;;;;;;;;;6272133;28;20013;-75
2023/01/05 08:06:35;;;;;;;4.50;2.17;;;;;;;;;;6251482;28;20087;-75
2023/01/05 08:16:42;;;;;;;6.05;2.35;;;;;;;;;;6173951;28;20014;-76
2023/01/05 08:19:42;;;;;;;10.40;3.60;;;;;;;;;;6170991;28;20125;-75
2023/01/05 08:22:42;;;;;;;11.17;3.17;;;;;;;;;;6265002;28;20028;-76
2023/01/05 08:25:42;;;;;;;8.70;4.33;;;;;;;;;;6268944;28;20060;-76
2023/01/05 08:28:43;;;;;;;8.48;5.38;;;;;;;;;;6270590;28;20209;-75
2023/01/05 08:31:43;;;;;;;9.33;3.67;;;;;;;;;;6251482;28;20025;-75
2023/01/05 08:34:43;;;;;;;8.10;4.63;;;;;;;;;;6270526;28;20021;-75
2023/01/05 08:37:44;;;;;;;25.20;10.45;;;;;;;;;;6251109;28;20036;-75
2023/01/05 08:40:44;;;;;;;16.13;8.20;;;;;;;;;;6269110;28;20025;-75
2023/01/05 08:43:48;;;;;;;16.92;7.47;;;;;;;;;;6269961;28;20381;-75
2023/01/05 08:46:48;;;;;;;15.45;9.23;;;;;;;;;;6270195;28;20009;-75
2023/01/05 08:49:48;;;;;;;10.98;6.05;;;;;;;;;;6270872;28;20021;-75
2023/01/05 08:52:48;;;;;;;16.63;6.00;;;;;;;;;;6270012;28;20091;-75
2023/01/05 08:55:49;;;;;;;13.57;6.93;;;;;;;;;;6270340;28;20025;-75
2023/01/05 08:58:49;;;;;;;9.33;5.57;;;;;;;;;;6269420;28;20024;-75
2023/01/05 09:01:50;;;;;;;11.77;5.70;;;;;;;;;;6248838;28;20132;-75
2023/01/05 09:04:50;;;;;;;10.87;5.00;;;;;;;;;;6269499;28;20024;-75
2023/01/05 09:07:50;;;;;;;13.23;5.63;;;;;;;;;;6268715;28;20011;-75
2023/01/05 09:10:50;;;;;;;12.43;5.30;;;;;;;;;;6249645;28;20114;-74
2023/01/05 09:13:52;;;;;;;11.45;5.80;;;;;;;;;;6269502;28;20477;-75
2023/01/05 09:16:52;;;;;;;13.57;6.13;;;;;;;;;;6270696;28;20013;-75
2023/01/05 09:19:52;;;;;;;14.03;7.17;;;;;;;;;;6270195;28;20045;-76
2023/01/05 09:22:53;;;;;;;11.70;4.50;;;;;;;;;;6251634;28;20017;-75
2023/01/05 09:25:53;;;;;;;17.60;6.23;;;;;;;;;;6269694;28;20020;-76
2023/01/05 09:28:53;;;;;;;11.40;4.30;;;;;;;;;;6270120;28;20089;-75
2023/01/05 09:31:53;;;;;;;6.83;3.40;;;;;;;;;;6270075;28;20428;-76
2023/01/05 09:34:54;;;;;;;11.13;4.60;;;;;;;;;;6270771;28;20021;-76
2023/01/05 09:37:54;;;;;;;12.60;4.53;;;;;;;;;;6272222;28;20028;-75
2023/01/05 09:40:55;;;;;;;10.97;3.87;;;;;;;;;;6267785;28;20544;-75
2023/01/05 09:44:02;;;;;;;8.17;3.47;;;;;;;;;;6269343;28;20071;-76
2023/01/05 09:47:21;;;;;;;9.15;3.55;;;;;;;;;;6267448;28;20020;-75
2023/01/05 09:50:26;;;;;;;11.32;4.38;;;;;;;;;;6266928;28;20400;-75
2023/01/05 09:53:28;;;;;;;11.25;4.07;;;;;;;;;;6268717;28;20096;-74
2023/01/05 09:56:28;;;;;;;;;;;;;;;;;;6264817;28;20025;-74
2023/01/05 09:59:31;;;;;;;9.35;3.38;;;;;;;;;;6266212;28;19955;-74
2023/01/05 10:02:43;;;;;;;15.65;3.65;;;;;;;;;;6267771;28;20032;-74
2023/01/05 10:05:45;;;;;;;8.10;3.55;;;;;;;;;;6244062;28;20017;-73
2023/01/05 10:08:47;;;;;;;6.18;3.20;;;;;;;;;;6268151;28;20115;-74
2023/01/05 10:15:16;;;;;;;8.77;3.58;;;;;;;;;;6272760;28;20075;-74
2023/01/05 10:18:17;;;;;;;12.43;4.38;;;;;;;;;;6271608;28;20040;-74
2023/01/05 10:21:18;;;;;;;12.40;4.18;;;;;;;;;;6274892;28;20059;-73
2023/01/05 10:24:22;;;;;;;14.10;5.72;;;;;;;;;;6274027;28;20029;-74
2023/01/05 10:27:33;;;;;;;14.27;6.32;;;;;;;;;;6269704;28;20079;-74
2023/01/05 10:30:41;;;;;;;13.32;7.20;;;;;;;;;;6274746;28;20030;-74
2023/01/05 10:33:49;;;;;;;10.32;4.90;;;;;;;;;;6275358;28;20028;-74
2023/01/05 10:36:56;;;;;;;16.30;5.85;;;;;;;;;;6270814;28;20025;-75
2023/01/05 10:40:15;;;;;;;10.38;4.95;;;;;;;;;;6272405;28;20037;-74
2023/01/05 10:43:24;;;;;;;11.27;5.50;;;;;;;;;;6272850;28;20029;-74
2023/01/05 10:46:25;;;;;;;15.38;5.13;;;;;;;;;;6266867;28;20021;-74
2023/01/05 10:49:26;;;;;;;12.63;8.87;;;;;;;;;;6266159;28;20021;-74
2023/01/05 10:52:26;;;;;;;15.25;9.10;;;;;;;;;;6252790;28;20028;-74
2023/01/05 10:55:28;;;;;;;21.33;10.93;;;;;;;;;;6255683;28;20044;-74
2023/01/05 10:58:30;;;;;;;12.27;6.15;;;;;;;;;;6266568;28;20028;-74
2023/01/05 11:01:30;;;;;;;10.07;4.57;;;;;;;;;;6256617;28;20021;-74
2023/01/05 11:04:30;;;;;;;11.50;5.80;;;;;;;;;;6272206;28;20070;-74
2023/01/05 11:07:31;;;;;;;13.67;5.90;;;;;;;;;;6273675;28;20017;-75
2023/01/05 11:10:35;;;;;;;13.53;6.80;;;;;;;;;;6275272;28;20108;-74
2023/01/05 11:13:41;;;;;;;14.75;7.35;;;;;;;;;;6272126;28;20032;-75
2023/01/05 11:16:46;;;;;;;13.82;6.82;;;;;;;;;;6277583;28;20369;-74
2023/01/05 11:19:49;;;;;;;14.52;5.07;;;;;;;;;;6278927;28;20048;-75
2023/01/05 11:22:50;;;;;;;9.60;5.32;;;;;;;;;;6270031;28;20023;-75
2023/01/05 11:25:50;;;;;;;10.40;4.07;;;;;;;;;;6271803;28;20009;-75
2023/01/05 11:28:53;;;;;;;13.63;5.45;;;;;;;;;;6274104;28;20017;-74
2023/01/05 11:31:59;;;;;;;17.15;6.78;;;;;;;;;;6271970;28;20067;-74
2023/01/05 11:34:59;;;;;;;7.80;4.32;;;;;;;;;;6268523;28;20523;-75
2023/01/05 11:38:00;;;;;;;15.37;5.00;;;;;;;;;;6270143;28;20020;-74
2023/01/05 11:41:00;;;;;;;9.07;3.57;;;;;;;;;;6267696;28;20429;-76
2023/01/05 11:44:02;;;;;;;11.87;4.13;;;;;;;;;;6272479;28;20032;-76
2023/01/05 11:47:04;;;;;;;11.77;4.63;;;;;;;;;;6273596;28;20486;-76
2023/01/05 11:50:12;;;;;;;7.25;3.75;;;;;;;;;;6268703;28;20021;-76
2023/01/05 11:53:31;;;;;;;12.00;4.38;;;;;;;;;;6254601;28;20492;-76
2023/01/05 11:56:32;;;;;;;12.65;3.75;;;;;;;;;;6268928;28;20035;-75
2023/01/05 11:59:36;;;;;;;4.53;2.50;;;;;;;;;;6253405;28;20024;-77
2023/01/05 12:02:39;;;;;;;2.53;1.77;;;;;;;;;;6249748;28;20583;-76
2023/01/05 12:05:44;;;;;;;5.10;2.33;;;;;;;;;;6267604;28;20473;-78
2023/01/05 12:08:52;;;;;;;6.85;3.15;;;;;;;;;;6273377;28;20025;-77
2023/01/05 12:11:52;;;;;;;8.95;3.10;;;;;;;;;;6270008;28;20036;-77
2023/01/05 12:15:11;;;;;;;9.03;3.20;;;;;;;;;;6266951;28;20017;-78
2023/01/05 12:18:30;;;;;;;6.40;2.72;;;;;;;;;;6269999;28;20052;-77
2023/01/05 12:21:35;;;;;;;11.07;6.55;;;;;;;;;;6269972;28;20498;-77
2023/01/05 12:24:41;;;;;;;9.90;5.35;;;;;;;;;;6270159;28;20812;-77
2023/01/05 12:27:50;;;;;;;14.85;5.20;;;;;;;;;;6268885;28;20029;-76
2023/01/05 12:30:56;;;;;;;10.70;5.13;;;;;;;;;;6268657;28;20020;-76
2023/01/05 12:34:03;;;;;;;12.93;6.18;;;;;;;;;;6269860;28;20473;-77
2023/01/05 12:37:15;;;;;;;14.30;5.38;;;;;;;;;;6270580;28;20036;-77
2023/01/05 12:40:35;;;;;;;15.43;7.68;;;;;;;;;;6271902;28;20017;-77
2023/01/05 12:43:59;;;;;;;34.92;13.55;;;;;;;;;;6270776;28;20036;-77
2023/01/05 12:47:13;;;;;;;24.15;11.55;;;;;;;;;;6257789;28;20489;-78
2023/01/05 12:50:19;;;;;;;17.63;8.48;;;;;;;;;;6268660;28;20013;-77
2023/01/05 12:53:36;;;;;;;18.73;7.50;;;;;;;;;;6270679;28;20055;-75
2023/01/05 12:56:46;;;;;;;32.78;10.63;;;;;;;;;;6270425;28;20031;-76
2023/01/05 12:59:46;;;;;;;15.88;9.18;;;;;;;;;;6270286;28;20393;-77
2023/01/05 13:03:06;;;;;;;14.05;5.93;;;;;;;;;;6253558;28;20380;-78
2023/01/05 13:06:08;;;;;;;11.30;3.72;;;;;;;;;;6264136;28;20037;-76
2023/01/05 13:09:14;;;;;;;6.60;3.20;;;;;;;;;;6258590;28;20021;-76
2023/01/05 13:12:14;;;;;;;7.97;2.58;;;;;;;;;;6270186;28;20037;-76
2023/01/05 13:15:17;;;;;;;7.10;2.57;;;;;;;;;;6270651;28;20488;-77
2023/01/05 13:18:18;;;;;;;8.35;2.58;;;;;;;;;;6252243;28;20061;-76
2023/01/05 13:21:20;;;;;;;4.13;1.80;;;;;;;;;;6270974;28;20021;-76
2023/01/05 13:24:26;;;;;;;3.33;1.80;;;;;;;;;;6267503;28;20492;-76
2023/01/05 13:27:28;;;;;;;9.90;3.72;;;;;;;;;;6268279;28;20013;-76
2023/01/05 13:30:31;;;;;;;10.93;3.45;;;;;;;;;;6264209;28;20396;-75
2023/01/05 13:33:38;;;;;;;6.00;2.88;;;;;;;;;;6266392;28;20100;-74
2023/01/05 13:36:38;;;;;;;8.38;2.50;;;;;;;;;;6255663;28;20029;-74
2023/01/05 13:39:47;;;;;;;8.82;4.50;;;;;;;;;;6260944;28;20032;-76
2023/01/05 13:43:03;;;;;;;12.90;5.03;;;;;;;;;;6267654;28;20051;-75
2023/01/05 13:46:15;;;;;;;15.93;5.70;;;;;;;;;;6267284;28;20028;-74
2023/01/05 13:49:33;;;;;;;4.45;1.90;;;;;;;;;;6263315;28;20036;-75
2023/01/05 13:52:54;;;;;;;6.18;2.65;;;;;;;;;;6270252;28;20028;-75
2023/01/05 13:55:59;;;;;;;12.57;5.47;;;;;;;;;;6267685;28;20037;-75
2023/01/05 13:59:05;;;;;;;13.55;5.60;;;;;;;;;;6263658;28;20019;-76
2023/01/05 14:02:23;;;;;;;15.65;5.82;;;;;;;;;;6269258;28;20036;-75
2023/01/05 14:05:25;;;;;;;23.77;9.23;;;;;;;;;;6268761;28;20029;-75
2023/01/05 14:08:26;;;;;;;;;;;;;;;;;;6268219;28;20009;-75
2023/01/05 14:11:27;;;;;;;12.02;5.32;;;;;;;;;;6248775;28;19909;-75
2023/01/05 14:14:27;;;;;;;26.13;11.87;;;;;;;;;;6262841;28;20056;-75
2023/01/05 14:17:46;;;;;;;22.77;8.37;;;;;;;;;;6268694;28;20078;-76
2023/01/05 14:20:51;;;;;;;21.92;9.20;;;;;;;;;;6268431;28;20029;-76
2023/01/05 14:23:54;;;;;;;38.28;15.43;;;;;;;;;;6268641;28;20096;-75
2023/01/05 14:27:00;;;;;;;36.88;15.82;;;;;;;;;;6269999;28;20013;-75
2023/01/05 14:30:01;;;;;;;31.33;13.00;;;;;;;;;;6267039;28;20013;-75
2023/01/05 14:33:04;;;;;;;25.67;11.20;;;;;;;;;;6268465;28;20025;-75
2023/01/05 14:36:07;;;;;;;46.97;13.88;;;;;;;;;;6269239;28;20377;-76
2023/01/05 14:39:16;;;;;;;87.47;20.10;;;;;;;;;;6268401;28;20074;-75
2023/01/05 14:42:29;;;;;;;211.32;29.95;;;;;;;;;;6267692;28;20025;-75
2023/01/05 14:45:30;;;;;;;161.82;26.08;;;;;;;;;;6250612;28;20049;-75
2023/01/05 15:10:33;;;;;;;607.65;55.75;;;;;;;;;;6271054;28;20457;-74
2023/01/05 15:14:30;;;;;;;1810.38;177.52;;;;;;;;;;6269764;28;20524;-75
2023/01/05 15:17:20;;;;;;;1890.38;217.82;;;;;;;;;;6272529;28;20504;-75
2023/01/05 15:20:20;;;;;;;1458.20;160.27;;;;;;;;;;6272286;28;20079;-75
2023/01/05 15:23:21;;;;;;;1999.90;411.48;;;;;;;;;;6272401;28;20021;-74
2023/01/05 15:33:51;;;;;;;1999.90;277.73;;;;;;;;;;6269775;28;20381;-75
2023/01/05 15:37:09;;;;;;;1999.90;321.67;;;;;;;;;;6252865;28;20048;-75
2023/01/05 15:40:22;;;;;;;90.72;21.13;;;;;;;;;;6247388;28;20021;-74
2023/01/05 15:43:22;;;;;;;29.55;11.48;;;;;;;;;;6267703;28;20531;-75
2023/01/05 15:46:25;;;;;;;876.03;143.57;;;;;;;;;;6263907;28;20028;-75
2023/01/05 15:49:28;;;;;;;163.93;27.75;;;;;;;;;;6247719;28;20476;-75
2023/01/05 15:52:38;;;;;;;144.02;31.50;;;;;;;;;;6248283;28;20025;-74
2023/01/05 15:55:42;;;;;;;460.52;80.70;;;;;;;;;;6265219;28;20023;-75
2023/01/05 15:58:43;;;;;;;171.48;33.65;;;;;;;;;;6265721;28;20017;-75
2023/01/05 16:01:44;;;;;;;102.93;21.55;;;;;;;;;;6248566;28;20056;-74
2023/01/05 16:04:44;;;;;;;405.87;87.47;;;;;;;;;;6266768;28;20025;-75
2023/01/05 16:07:47;;;;;;;60.92;13.05;;;;;;;;;;6267018;28;20029;-75
2023/01/05 16:10:50;;;;;;;92.88;15.27;;;;;;;;;;6265159;28;20112;-75
2023/01/05 16:13:53;;;;;;;81.68;13.07;;;;;;;;;;6242906;28;20481;-76
2023/01/05 16:17:02;;;;;;;74.22;13.45;;;;;;;;;;6268800;28;20551;-76
2023/01/05 16:20:06;;;;;;;170.50;23.23;;;;;;;;;;6264095;28;20052;-75
2023/01/05 16:23:11;;;;;;;165.18;32.05;;;;;;;;;;6246033;28;20104;-76
2023/01/05 16:26:14;;;;;;;15.60;5.72;;;;;;;;;;6265347;28;20112;-75
2023/01/05 16:29:36;;;;;;;24.00;9.38;;;;;;;;;;6240126;28;20052;-75
2023/01/05 16:32:37;;;;;;;10.10;4.10;;;;;;;;;;6265068;28;20163;-75
2023/01/05 16:35:47;;;;;;;19.87;8.33;;;;;;;;;;6266513;28;20030;-76
2023/01/05 16:39:06;;;;;;;18.20;6.25;;;;;;;;;;6267894;28;20484;-76
2023/01/05 16:42:34;;;;;;;19.15;6.20;;;;;;;;;;6240205;28;20526;-75
2023/01/05 16:45:34;;;;;;;1018.30;120.85;;;;;;;;;;6269669;28;20362;-75
2023/01/05 16:48:34;;;;;;;1794.10;171.33;;;;;;;;;;6270271;28;20039;-75
2023/01/05 16:51:37;;;;;;;1999.90;360.08;;;;;;;;;;6267835;28;20021;-76
2023/01/05 16:54:39;;;;;;;51.22;17.13;;;;;;;;;;6269388;28;20496;-75
2023/01/05 16:57:39;;;;;;;;;;;;;;;;;;6268966;28;20079;-75
2023/01/05 17:00:40;;;;;;;131.02;26.88;;;;;;;;;;6269896;28;19917;-74
2023/01/05 17:03:41;;;;;;;47.80;12.67;;;;;;;;;;6270068;28;20017;-76
2023/01/05 17:06:46;;;;;;;44.72;11.55;;;;;;;;;;6263885;28;20033;-76
2023/01/05 17:09:46;;;;;;;52.22;17.77;;;;;;;;;;6270629;28;20473;-75
2023/01/05 17:12:52;;;;;;;82.83;18.43;;;;;;;;;;6269812;28;20032;-75
2023/01/05 17:15:52;;;;;;;54.80;14.20;;;;;;;;;;6269510;28;20025;-75
2023/01/05 17:18:52;;;;;;;27.27;10.60;;;;;;;;;;6246900;28;20048;-75
2023/01/05 17:21:54;;;;;;;198.83;32.17;;;;;;;;;;6269313;28;20043;-76
2023/01/05 17:24:54;;;;;;;210.85;41.30;;;;;;;;;;6245140;28;20040;-76
2023/01/05 17:27:55;;;;;;;83.93;16.00;;;;;;;;;;6268392;28;20063;-75
2023/01/05 17:30:55;;;;;;;146.33;27.50;;;;;;;;;;6269274;28;20031;-75
2023/01/05 17:33:55;;;;;;;212.57;33.00;;;;;;;;;;6244925;28;20017;-75
2023/01/05 17:36:58;;;;;;;24.57;9.23;;;;;;;;;;6249364;28;20494;-73
2023/01/05 17:39:58;;;;;;;43.38;12.35;;;;;;;;;;6265620;28;20090;-73
2023/01/05 17:42:58;;;;;;;12.77;6.43;;;;;;;;;;6267929;28;20028;-73
2023/01/05 17:45:59;;;;;;;32.27;10.80;;;;;;;;;;6267868;28;20020;-73
2023/01/05 17:48:59;;;;;;;31.87;9.83;;;;;;;;;;6269299;28;20024;-73
2023/01/05 17:51:59;;;;;;;40.53;11.13;;;;;;;;;;6269231;28;20025;-73
2023/01/05 17:54:59;;;;;;;22.87;7.57;;;;;;;;;;6249077;28;20036;-73
2023/01/05 17:58:00;;;;;;;32.17;10.33;;;;;;;;;;6248808;28;20028;-73
2023/01/05 18:01:01;;;;;;;30.00;13.90;;;;;;;;;;6270465;28;20048;-73
2023/01/05 18:04:01;;;;;;;35.67;12.37;;;;;;;;;;6268822;28;20035;-74
2023/01/05 18:07:01;;;;;;;21.90;8.30;;;;;;;;;;6266939;28;20024;-73
2023/01/05 18:10:04;;;;;;;21.70;9.20;;;;;;;;;;6247688;28;20031;-73
2023/01/05 18:13:04;;;;;;;20.63;8.00;;;;;;;;;;6266787;28;20461;-74
2023/01/05 18:16:06;;;;;;;31.10;11.93;;;;;;;;;;6267934;28;20029;-74
2023/01/05 18:19:06;;;;;;;28.00;9.05;;;;;;;;;;6268056;28;20044;-73
2023/01/05 18:22:06;;;;;;;23.17;8.10;;;;;;;;;;6246527;28;20021;-74
2023/01/05 18:25:11;;;;;;;10.80;5.17;;;;;;;;;;6265958;28;20261;-74
2023/01/05 18:28:11;;;;;;;19.55;7.32;;;;;;;;;;6241855;28;20032;-74
2023/01/05 18:31:12;;;;;;;22.40;8.77;;;;;;;;;;6250037;28;20017;-74
2023/01/05 18:34:13;;;;;;;9.57;5.18;;;;;;;;;;6270660;28;20032;-73
2023/01/05 18:37:14;;;;;;;25.85;7.63;;;;;;;;;;6270609;28;20481;-73
2023/01/05 18:40:14;;;;;;;24.63;10.85;;;;;;;;;;6271451;28;20536;-74
2023/01/05 18:43:15;;;;;;;14.77;5.53;;;;;;;;;;6257424;28;20036;-74
2023/01/05 18:46:15;;;;;;;15.17;7.10;;;;;;;;;;6270478;28;20440;-72
2023/01/05 18:49:15;;;;;;;12.30;5.97;;;;;;;;;;6269003;28;20021;-74
2023/01/05 18:52:15;;;;;;;15.70;5.10;;;;;;;;;;6269659;28;20107;-72
2023/01/05 18:55:16;;;;;;;20.23;8.20;;;;;;;;;;6269324;28;20025;-73
2023/01/05 18:58:16;;;;;;;16.60;6.47;;;;;;;;;;6265922;28;20095;-73
2023/01/05 19:01:17;;;;;;;11.77;4.50;;;;;;;;;;6269948;28;20102;-74
2023/01/05 19:04:18;;;;;;;10.43;4.13;;;;;;;;;;6251372;28;20078;-73
2023/01/05 19:07:18;;;;;;;9.70;4.40;;;;;;;;;;6269071;28;20021;-73
2023/01/05 19:10:18;;;;;;;6.27;3.40;;;;;;;;;;6269318;28;20094;-74
2023/01/05 19:13:18;;;;;;;10.47;4.23;;;;;;;;;;6268801;28;20071;-73
2023/01/05 19:16:19;;;;;;;9.40;4.32;;;;;;;;;;6271680;28;20028;-73